Time;durP1;ratioP1;P1;durP2;ratioP2;P2;SDS_P1;SDS_P2;PMS_P1;PMS_P2;Temp;Humidity;BMP_temperature;BMP_pressure;BME280_temperature;BME280_humidity;BME280_pressure;Samples;Min_cycle;Max_cycle;Signal;HPM_P1;HPM_P2
2023/08/26 00:01:50;;;;;;;9.10;6.72;;;17.00;99.90;;;;;;5112642;28;20039;-69
2023/08/26 00:04:36;;;;;;;12.40;7.32;;;16.90;99.90;;;;;;5110878;28;20058;-77
2023/08/26 00:07:22;;;;;;;9.80;6.28;;;16.90;99.90;;;;;;5111284;28;20044;-76
2023/08/26 00:10:08;;;;;;;12.30;7.43;;;16.80;99.90;;;;;;5112048;28;20448;-71
2023/08/26 00:12:54;;;;;;;15.88;7.20;;;16.80;99.90;;;;;;5110301;28;20059;-69
2023/08/26 00:15:40;;;;;;;13.30;7.40;;;16.70;99.90;;;;;;5112941;28;20058;-69
2023/08/26 00:18:27;;;;;;;10.40;7.00;;;16.70;99.90;;;;;;5111128;28;20048;-70
2023/08/26 00:21:14;;;;;;;12.68;7.28;;;16.70;99.90;;;;;;5110234;28;20147;-69
2023/08/26 00:24:01;;;;;;;10.98;7.35;;;16.70;99.90;;;;;;5111060;28;20062;-69
2023/08/26 00:26:47;;;;;;;12.95;6.60;;;16.60;99.90;;;;;;5112211;28;20055;-69
2023/08/26 00:29:33;;;;;;;9.77;6.00;;;16.60;99.90;;;;;;5110996;28;20078;-69
2023/08/26 00:32:19;;;;;;;11.55;6.43;;;16.50;99.90;;;;;;5111744;28;20499;-72
2023/08/26 00:35:05;;;;;;;14.52;6.22;;;16.50;99.90;;;;;;5109662;28;20097;-73
2023/08/26 00:37:51;;;;;;;11.73;6.18;;;16.50;99.90;;;;;;5097541;28;20467;-75
2023/08/26 00:40:37;;;;;;;9.18;5.53;;;16.40;99.90;;;;;;5112682;28;20152;-68
2023/08/26 00:43:27;;;;;;;14.68;6.18;;;16.40;99.90;;;;;;5110506;28;20066;-70
2023/08/26 00:46:14;;;;;;;8.43;4.88;;;16.40;99.90;;;;;;5082797;28;20113;-75
2023/08/26 00:49:00;;;;;;;13.20;6.45;;;16.30;99.90;;;;;;5111383;28;20055;-73
2023/08/26 00:51:47;;;;;;;9.52;5.10;;;16.30;99.90;;;;;;5111026;28;20410;-76
2023/08/26 00:54:35;;;;;;;8.40;4.93;;;16.30;99.90;;;;;;5111470;28;20054;-69
2023/08/26 00:57:22;;;;;;;9.82;4.90;;;16.20;99.90;;;;;;5110177;28;20088;-74
2023/08/26 01:00:08;;;;;;;11.27;4.38;;;16.20;99.90;;;;;;5112179;28;20078;-74
2023/08/26 01:02:55;;;;;;;8.77;4.28;;;16.10;99.90;;;;;;5109676;28;20063;-73
2023/08/26 01:05:41;;;;;;;7.93;4.32;;;16.10;99.90;;;;;;5111419;28;20048;-69
2023/08/26 01:08:27;;;;;;;7.82;4.25;;;16.10;99.90;;;;;;5111232;28;20150;-69
2023/08/26 01:11:37;;;;;;;9.00;4.13;;;16.10;99.90;;;;;;5109934;28;20092;-79
2023/08/26 01:14:40;;;;;;;9.50;3.47;;;16.00;99.90;;;;;;5111245;28;20055;-73
2023/08/26 01:17:26;;;;;;;6.80;3.13;;;16.00;99.90;;;;;;5109779;28;20487;-72
2023/08/26 01:20:14;;;;;;;9.15;4.03;;;15.90;99.90;;;;;;5109082;28;20055;-73
2023/08/26 01:23:05;;;;;;;10.35;4.45;;;15.90;99.90;;;;;;5111285;28;20044;-73
2023/08/26 01:25:52;;;;;;;6.68;3.10;;;15.90;99.90;;;;;;5109817;28;20044;-73
2023/08/26 01:28:39;;;;;;;15.95;3.47;;;15.90;99.90;;;;;;5110089;28;20047;-73
2023/08/26 01:31:29;;;;;;;9.98;3.60;;;15.80;99.90;;;;;;5109924;28;20048;-70
2023/08/26 01:34:27;;;;;;;12.00;4.18;;;15.80;99.90;;;;;;5110563;28;20059;-71
2023/08/26 01:37:14;;;;;;;9.30;3.95;;;15.80;99.90;;;;;;5111555;28;20428;-70
2023/08/26 01:40:04;;;;;;;7.30;3.38;;;15.70;99.90;;;;;;5110829;28;20123;-69
2023/08/26 01:42:51;;;;;;;7.65;3.15;;;15.70;99.90;;;;;;5110887;28;20047;-72
2023/08/26 01:45:37;;;;;;;8.32;2.92;;;15.70;99.90;;;;;;5110652;28;20081;-71
2023/08/26 01:48:24;;;;;;;8.27;3.10;;;15.60;99.90;;;;;;5110719;28;20055;-70
2023/08/26 01:51:11;;;;;;;8.45;2.78;;;15.60;99.90;;;;;;5108320;28;20048;-71
2023/08/26 01:53:57;;;;;;;8.65;2.90;;;15.60;99.90;;;;;;5110610;28;20084;-73
2023/08/26 01:56:43;;;;;;;9.63;2.58;;;15.60;99.90;;;;;;5110412;28;20414;-70
2023/08/26 01:59:30;;;;;;;7.90;2.35;;;15.50;99.90;;;;;;5111183;28;20167;-70
2023/08/26 02:02:16;;;;;;;4.68;1.83;;;15.50;99.90;;;;;;5109382;28;20083;-74
2023/08/26 02:05:02;;;;;;;5.50;2.22;;;15.40;99.90;;;;;;5110757;28;20067;-79
2023/08/26 02:07:48;;;;;;;9.68;2.17;;;15.40;99.90;;;;;;5109713;28;20079;-71
2023/08/26 02:10:34;;;;;;;5.50;2.50;;;15.40;99.90;;;;;;5109134;28;20052;-71
2023/08/26 02:13:20;;;;;;;4.18;1.92;;;15.30;99.90;;;;;;5109330;28;20058;-78
2023/08/26 02:16:06;;;;;;;9.18;3.15;;;15.30;99.90;;;;;;5093766;28;20040;-73
2023/08/26 02:18:52;;;;;;;5.35;2.17;;;15.30;99.90;;;;;;5108761;28;20544;-77
2023/08/26 02:21:39;;;;;;;6.07;2.28;;;15.30;99.90;;;;;;5109775;28;20036;-69
2023/08/26 02:24:25;;;;;;;5.28;1.92;;;15.20;99.90;;;;;;5109041;28;20054;-74
2023/08/26 02:27:11;;;;;;;6.30;2.08;;;15.20;99.90;;;;;;5110437;28;20082;-71
2023/08/26 02:29:57;;;;;;;4.43;1.80;;;15.10;99.90;;;;;;5111864;28;20101;-71
2023/08/26 02:32:43;;;;;;;3.47;1.63;;;15.10;99.90;;;;;;5111333;28;20123;-72
2023/08/26 02:35:34;;;;;;;6.72;2.45;;;15.00;99.90;;;;;;5114307;28;20059;-68
2023/08/26 02:38:20;;;;;;;7.10;1.85;;;15.00;99.90;;;;;;5114210;28;20077;-72
2023/08/26 02:41:07;;;;;;;6.22;1.75;;;15.00;99.90;;;;;;5115167;28;20044;-73
2023/08/26 02:43:53;;;;;;;8.40;2.85;;;15.00;99.90;;;;;;5112165;28;20052;-70
2023/08/26 02:46:39;;;;;;;4.38;1.52;;;14.90;99.90;;;;;;5114214;28;20085;-74
2023/08/26 02:49:26;;;;;;;4.95;1.50;;;14.90;99.90;;;;;;5112506;28;20090;-70
2023/08/26 02:52:12;;;;;;;4.90;1.73;;;14.90;99.90;;;;;;5114517;28;20423;-76
2023/08/26 02:54:58;;;;;;;4.82;1.58;;;14.80;99.90;;;;;;5113967;28;20047;-72
2023/08/26 02:57:44;;;;;;;3.40;1.70;;;14.90;99.90;;;;;;5111440;28;20055;-76
2023/08/26 03:00:33;;;;;;;4.53;1.77;;;14.80;99.90;;;;;;5113752;28;20506;-77
2023/08/26 03:03:19;;;;;;;5.32;1.80;;;14.70;99.90;;;;;;5112409;28;20044;-71
2023/08/26 03:06:05;;;;;;;7.50;2.53;;;14.70;99.90;;;;;;5112059;28;20408;-75
2023/08/26 03:08:51;;;;;;;8.85;3.05;;;14.60;99.90;;;;;;5112091;28;20087;-77
2023/08/26 03:11:37;;;;;;;5.40;2.10;;;14.60;99.90;;;;;;5111101;28;20066;-74
2023/08/26 03:14:23;;;;;;;7.70;2.28;;;14.60;99.90;;;;;;5111942;28;20106;-68
2023/08/26 03:17:10;;;;;;;8.25;2.38;;;14.50;99.90;;;;;;5112372;28;20098;-73
2023/08/26 03:19:56;;;;;;;4.88;2.00;;;14.50;99.90;;;;;;5112681;28;20050;-70
2023/08/26 03:22:42;;;;;;;4.78;2.25;;;14.40;99.90;;;;;;5112200;28;20059;-73
2023/08/26 03:25:29;;;;;;;6.20;2.10;;;14.40;99.90;;;;;;5112190;28;20048;-74
2023/08/26 03:28:15;;;;;;;5.65;2.33;;;14.40;99.90;;;;;;5113503;28;20112;-73
2023/08/26 03:31:04;;;;;;;6.95;2.85;;;14.40;99.90;;;;;;5097626;28;20083;-73
2023/08/26 03:33:50;;;;;;;5.53;2.47;;;14.40;99.90;;;;;;5113230;28;20048;-69
2023/08/26 03:36:36;;;;;;;5.65;3.15;;;14.30;99.90;;;;;;5112899;28;20556;-70
2023/08/26 03:39:23;;;;;;;11.65;3.10;;;14.30;99.90;;;;;;5110740;28;20061;-69
2023/08/26 03:42:09;;;;;;;5.55;3.30;;;14.30;99.90;;;;;;5110291;28;20138;-69
2023/08/26 03:44:55;;;;;;;8.32;2.80;;;14.20;99.90;;;;;;5111863;28;20448;-78
2023/08/26 03:47:41;;;;;;;6.55;2.47;;;14.20;99.90;;;;;;5112782;28;20047;-76
2023/08/26 03:50:28;;;;;;;7.40;3.03;;;14.20;99.90;;;;;;5112530;28;20510;-72
2023/08/26 03:53:14;;;;;;;7.82;3.75;;;14.20;99.90;;;;;;5111189;28;20056;-74
2023/08/26 03:56:01;;;;;;;6.38;2.92;;;14.20;99.90;;;;;;5111085;28;20113;-77
2023/08/26 03:58:49;;;;;;;7.57;2.92;;;14.10;99.90;;;;;;5111477;28;20507;-75
2023/08/26 04:01:35;;;;;;;7.97;2.90;;;14.20;99.90;;;;;;5113043;28;20048;-77
2023/08/26 04:04:21;;;;;;;7.68;2.58;;;14.10;99.90;;;;;;5111306;28;20047;-75
2023/08/26 04:07:07;;;;;;;10.18;2.60;;;14.10;99.90;;;;;;5111344;28;20047;-73
2023/08/26 04:09:53;;;;;;;5.68;2.33;;;14.10;99.90;;;;;;5112320;28;20101;-71
2023/08/26 04:12:39;;;;;;;8.32;3.38;;;14.10;99.90;;;;;;5111272;28;20055;-69
2023/08/26 04:15:25;;;;;;;4.32;2.45;;;14.10;99.90;;;;;;5111423;28;20050;-74
2023/08/26 04:18:13;;;;;;;5.95;3.10;;;14.10;99.90;;;;;;5110908;28;20503;-75
2023/08/26 04:20:59;;;;;;;24.95;4.85;;;14.10;99.90;;;;;;5110152;28;20051;-73
2023/08/26 04:23:45;;;;;;;5.38;3.10;;;14.10;99.90;;;;;;5111197;28;20048;-74
2023/08/26 04:26:31;;;;;;;6.43;2.97;;;14.00;99.90;;;;;;5110349;28;20056;-73
2023/08/26 04:29:17;;;;;;;5.13;2.92;;;14.10;99.90;;;;;;5111067;28;20518;-73
2023/08/26 04:32:04;;;;;;;5.65;2.75;;;14.00;99.90;;;;;;5111326;28;20058;-72
2023/08/26 04:34:50;;;;;;;6.60;2.50;;;14.00;99.90;;;;;;5112772;28;20063;-76
2023/08/26 04:37:37;;;;;;;7.47;2.90;;;14.00;99.90;;;;;;5111005;28;20044;-69
2023/08/26 04:40:25;;;;;;;7.20;3.30;;;14.00;99.90;;;;;;5095967;28;20090;-68
2023/08/26 04:43:11;;;;;;;7.85;4.40;;;14.00;99.90;;;;;;5111226;28;20503;-69
2023/08/26 04:45:58;;;;;;;6.93;3.00;;;14.00;99.90;;;;;;5111565;28;20043;-72
2023/08/26 04:48:44;;;;;;;10.68;3.78;;;14.10;99.90;;;;;;5110699;28;20051;-72
2023/08/26 04:51:30;;;;;;;7.20;4.15;;;14.10;99.90;;;;;;5112617;28;20052;-78
2023/08/26 04:54:16;;;;;;;7.00;3.30;;;14.10;99.90;;;;;;5109319;28;20574;-71
2023/08/26 04:57:02;;;;;;;8.43;3.97;;;14.00;99.90;;;;;;5112058;28;20056;-74
2023/08/26 04:59:49;;;;;;;9.07;3.97;;;14.00;99.90;;;;;;5109738;28;20063;-74
2023/08/26 05:02:35;;;;;;;6.35;3.58;;;14.00;99.90;;;;;;5110427;28;20048;-72
2023/08/26 05:05:21;;;;;;;7.63;3.70;;;14.00;99.90;;;;;;5111115;28;20583;-69
2023/08/26 05:08:10;;;;;;;6.85;3.67;;;14.10;99.90;;;;;;5111338;28;20158;-71
2023/08/26 05:10:56;;;;;;;6.28;3.78;;;14.00;99.90;;;;;;5109343;28;20487;-71
2023/08/26 05:13:42;;;;;;;8.32;3.65;;;14.00;99.90;;;;;;5109632;28;20510;-77
2023/08/26 05:16:28;;;;;;;7.00;3.35;;;14.00;99.90;;;;;;5111001;28;20089;-78
2023/08/26 05:19:14;;;;;;;8.82;3.17;;;14.00;99.90;;;;;;5110609;28;20134;-70
2023/08/26 05:22:01;;;;;;;8.60;4.28;;;14.00;99.90;;;;;;5109958;28;20057;-73
2023/08/26 05:24:48;;;;;;;12.45;3.70;;;14.10;99.90;;;;;;5095108;28;20548;-72
2023/08/26 05:27:34;;;;;;;8.90;3.63;;;14.10;99.90;;;;;;5109471;28;20121;-75
2023/08/26 05:30:20;;;;;;;8.63;4.10;;;14.10;99.90;;;;;;5111152;28;20059;-70
2023/08/26 05:33:06;;;;;;;8.77;5.03;;;14.10;99.90;;;;;;5110299;28;20044;-74
2023/08/26 05:35:52;;;;;;;8.40;4.35;;;14.20;99.90;;;;;;5110106;28;20055;-80
2023/08/26 05:38:38;;;;;;;8.82;4.40;;;14.30;99.90;;;;;;5109047;28;20074;-77
2023/08/26 05:41:24;;;;;;;6.88;3.88;;;14.40;99.90;;;;;;5110142;28;20054;-77
2023/08/26 05:44:11;;;;;;;8.93;4.72;;;14.50;99.90;;;;;;5095030;28;20499;-79
2023/08/26 05:46:57;;;;;;;7.97;3.92;;;14.60;99.90;;;;;;5110531;28;20066;-78
2023/08/26 05:49:43;;;;;;;8.10;4.45;;;14.70;99.90;;;;;;5109444;28;20052;-71
2023/08/26 05:52:29;;;;;;;10.52;4.57;;;14.80;99.90;;;;;;5108676;28;20442;-72
2023/08/26 05:55:15;;;;;;;10.60;4.30;;;14.90;99.90;;;;;;5109856;28;20052;-73
2023/08/26 05:58:01;;;;;;;7.03;4.00;;;15.00;99.90;;;;;;5108221;28;20087;-72
2023/08/26 06:00:47;;;;;;;6.45;3.05;;;15.10;99.90;;;;;;5108949;28;20491;-78
2023/08/26 06:03:33;;;;;;;10.45;3.50;;;15.20;99.90;;;;;;5110597;28;20051;-70
2023/08/26 06:06:20;;;;;;;7.00;3.83;;;15.30;99.90;;;;;;5113199;28;20082;-74
2023/08/26 06:09:06;;;;;;;9.82;3.95;;;15.40;99.90;;;;;;5113314;28;20495;-75
2023/08/26 06:11:54;;;;;;;5.68;3.00;;;15.60;99.90;;;;;;5114167;28;20048;-79
2023/08/26 06:14:40;;;;;;;8.40;3.28;;;15.70;99.90;;;;;;5114023;28;20089;-72
2023/08/26 06:17:28;;;;;;;7.03;3.53;;;15.80;99.90;;;;;;5113356;28;20108;-74
2023/08/26 06:20:14;;;;;;;7.45;3.15;;;15.90;99.90;;;;;;5114413;28;20051;-72
2023/08/26 06:23:00;;;;;;;7.53;3.60;;;16.00;99.90;;;;;;5114310;28;20048;-72
2023/08/26 06:25:53;;;;;;;8.73;3.60;;;16.10;99.90;;;;;;5113615;28;20139;-71
2023/08/26 06:28:39;;;;;;;7.70;3.70;;;16.20;99.90;;;;;;5113978;28;20052;-70
2023/08/26 06:31:25;;;;;;;8.63;3.85;;;16.30;99.90;;;;;;5114205;28;20212;-70
2023/08/26 06:34:12;;;;;;;5.70;4.07;;;16.40;99.90;;;;;;5098551;28;20461;-75
2023/08/26 06:36:58;;;;;;;11.27;4.13;;;16.60;99.90;;;;;;5113986;28;20048;-77
2023/08/26 06:39:44;;;;;;;9.15;4.28;;;16.70;99.90;;;;;;5114055;28;20044;-78
2023/08/26 06:42:30;;;;;;;7.75;3.47;;;16.80;99.90;;;;;;5112780;28;20081;-78
2023/08/26 06:45:16;;;;;;;8.93;3.35;;;16.90;99.90;;;;;;5113742;28;20048;-73
2023/08/26 06:48:02;;;;;;;9.30;3.28;;;16.90;99.90;;;;;;5112624;28;20090;-77
2023/08/26 06:50:49;;;;;;;7.95;3.38;;;16.90;99.90;;;;;;5113649;28;20044;-74
2023/08/26 06:53:35;;;;;;;7.38;3.42;;;17.00;99.90;;;;;;5114211;28;20058;-72
2023/08/26 06:56:21;;;;;;;7.57;3.47;;;17.00;99.90;;;;;;5113526;28;20056;-74
2023/08/26 06:59:08;;;;;;;6.25;2.97;;;16.90;99.90;;;;;;5113240;28;20059;-70
2023/08/26 07:01:54;;;;;;;7.55;3.17;;;16.90;99.90;;;;;;5111912;28;20097;-69
2023/08/26 07:04:41;;;;;;;6.68;2.72;;;17.00;99.90;;;;;;5111338;28;20043;-75
2023/08/26 07:07:27;;;;;;;5.65;2.63;;;17.10;99.90;;;;;;5112186;28;20087;-73
2023/08/26 07:10:13;;;;;;;4.55;2.42;;;17.40;99.90;;;;;;5112243;28;20060;-72
2023/08/26 07:13:00;;;;;;;7.95;2.45;;;17.60;99.90;;;;;;5113170;28;20089;-74
2023/08/26 07:15:46;;;;;;;8.05;2.60;;;17.80;99.90;;;;;;5113015;28;20043;-71
2023/08/26 07:18:32;;;;;;;4.53;2.33;;;17.70;99.90;;;;;;5112992;28;20048;-72
2023/08/26 07:21:19;;;;;;;6.13;2.95;;;17.70;99.90;;;;;;5112988;28;20043;-75
2023/08/26 07:24:05;;;;;;;7.68;3.17;;;17.60;99.90;;;;;;5111207;28;20058;-71
2023/08/26 07:26:51;;;;;;;7.43;3.63;;;17.60;99.90;;;;;;5098299;28;20055;-70
2023/08/26 07:29:38;;;;;;;6.72;3.42;;;17.50;99.90;;;;;;5096339;28;20052;-71
2023/08/26 07:32:24;;;;;;;6.93;3.00;;;17.50;99.90;;;;;;5111795;28;20078;-72
2023/08/26 07:35:10;;;;;;;9.80;4.90;;;17.50;99.90;;;;;;5112234;28;20048;-76
2023/08/26 07:37:56;;;;;;;5.13;3.38;;;17.80;99.90;;;;;;5111581;28;20055;-74
2023/08/26 07:40:42;;;;;;;7.70;3.78;;;18.00;99.90;;;;;;5111942;28;20083;-76
2023/08/26 07:43:30;;;;;;;8.55;3.80;;;18.30;99.90;;;;;;5111362;28;20048;-76
2023/08/26 07:46:18;;;;;;;9.40;5.03;;;18.60;99.90;;;;;;5111369;28;20108;-74
2023/08/26 07:49:05;;;;;;;9.95;5.30;;;18.80;99.90;;;;;;5112361;28;20153;-72
2023/08/26 07:51:51;;;;;;;11.32;6.68;;;19.00;99.90;;;;;;5111323;28;20051;-71
2023/08/26 07:54:37;;;;;;;12.05;7.03;;;19.20;99.90;;;;;;5111442;28;20051;-74
2023/08/26 07:57:23;;;;;;;9.75;6.22;;;19.40;99.90;;;;;;5111894;28;20054;-73
2023/08/26 08:00:11;;;;;;;13.02;7.47;;;19.50;99.90;;;;;;5111664;28;20043;-71
2023/08/26 08:02:57;;;;;;;13.70;6.90;;;19.70;99.90;;;;;;5112339;28;20048;-71
2023/08/26 08:05:43;;;;;;;14.40;6.80;;;20.00;99.90;;;;;;5111301;28;20051;-74
2023/08/26 08:08:29;;;;;;;13.27;7.15;;;20.20;99.90;;;;;;5110965;28;20498;-70
2023/08/26 08:11:15;;;;;;;10.55;6.45;;;20.30;99.90;;;;;;5110380;28;20056;-69
2023/08/26 08:14:01;;;;;;;15.27;6.95;;;20.30;99.90;;;;;;5110650;28;20508;-71
2023/08/26 08:16:47;;;;;;;15.68;7.45;;;20.30;99.90;;;;;;5112886;28;20120;-70
2023/08/26 08:19:38;;;;;;;11.80;7.43;;;20.40;99.90;;;;;;5110787;28;20048;-72
2023/08/26 08:22:35;;;;;;;13.07;7.88;;;20.50;99.90;;;;;;5110526;28;20469;-76
2023/08/26 08:25:21;;;;;;;22.63;8.05;;;20.20;99.90;;;;;;5109961;28;20074;-73
2023/08/26 08:28:07;;;;;;;10.35;7.60;;;20.10;99.90;;;;;;5109062;28;20047;-73
2023/08/26 08:30:53;;;;;;;10.73;7.63;;;20.20;99.90;;;;;;5083109;28;20087;-70
2023/08/26 08:33:39;;;;;;;10.88;7.30;;;20.10;99.90;;;;;;5111463;28;20093;-73
2023/08/26 08:36:25;;;;;;;13.18;7.93;;;20.00;99.90;;;;;;5112292;28;20048;-76
2023/08/26 08:39:12;;;;;;;14.00;8.25;;;19.80;99.90;;;;;;5110013;28;20514;-69
2023/08/26 08:42:01;;;;;;;11.60;7.47;;;19.60;99.90;;;;;;5109534;28;20055;-75
2023/08/26 08:44:48;;;;;;;17.13;8.15;;;19.60;99.90;;;;;;5111444;28;20097;-72
2023/08/26 08:47:34;;;;;;;12.10;8.25;;;19.30;99.90;;;;;;5110281;28;20055;-73
2023/08/26 08:50:21;;;;;;;12.63;8.02;;;19.30;99.90;;;;;;5109749;28;20097;-74
2023/08/26 08:53:10;;;;;;;13.52;9.00;;;19.20;99.90;;;;;;5110550;28;20052;-75
2023/08/26 08:56:00;;;;;;;9.45;5.95;;;19.00;99.90;;;;;;5110573;28;20091;-73
2023/08/26 08:58:48;;;;;;;11.00;4.57;;;19.00;99.90;;;;;;5110027;28;20048;-71
2023/08/26 09:01:35;;;;;;;9.05;5.43;;;19.30;99.90;;;;;;5110157;28;20051;-72
2023/08/26 09:04:22;;;;;;;8.43;5.22;;;19.60;99.90;;;;;;5110042;28;20581;-72
2023/08/26 09:07:11;;;;;;;13.10;6.43;;;19.60;99.90;;;;;;5111037;28;20062;-73
2023/08/26 09:09:58;;;;;;;12.50;6.32;;;19.60;99.90;;;;;;5110626;28;20043;-76
2023/08/26 09:12:44;;;;;;;12.30;6.70;;;19.50;99.90;;;;;;5110224;28;20494;-80
2023/08/26 09:15:30;;;;;;;13.00;7.50;;;19.60;99.90;;;;;;5111362;28;20101;-72
2023/08/26 09:18:18;;;;;;;8.52;5.45;;;20.00;99.90;;;;;;5110058;28;20055;-79
2023/08/26 09:21:09;;;;;;;9.68;5.28;;;20.20;99.90;;;;;;5110106;28;20055;-79
2023/08/26 09:23:55;;;;;;;10.48;3.53;;;20.50;99.90;;;;;;5109429;28;20043;-70
2023/08/26 09:26:43;;;;;;;7.40;3.45;;;20.60;99.90;;;;;;5110428;28;20156;-71
2023/08/26 09:29:31;;;;;;;8.70;3.38;;;20.70;99.90;;;;;;5109582;28;20047;-77
2023/08/26 09:32:39;;;;;;;5.20;2.45;;;20.80;99.90;;;;;;5109613;28;20566;-76
2023/08/26 09:35:25;;;;;;;7.90;2.33;;;20.90;99.90;;;;;;5109669;28;20058;-78
2023/08/26 09:38:11;;;;;;;5.22;2.10;;;21.00;99.90;;;;;;5110516;28;20410;-79
2023/08/26 09:40:59;;;;;;;4.35;1.95;;;21.20;99.90;;;;;;5108710;28;20058;-77
2023/08/26 09:43:47;;;;;;;2.63;1.10;;;21.30;99.90;;;;;;5109833;28;20085;-79
2023/08/26 09:46:36;;;;;;;5.15;1.58;;;21.10;99.90;;;;;;5110055;28;20059;-73
2023/08/26 09:49:22;;;;;;;4.47;1.40;;;21.10;99.90;;;;;;5110939;28;20059;-74
2023/08/26 09:52:08;;;;;;;3.40;1.13;;;21.10;99.90;;;;;;5109484;28;20468;-69
2023/08/26 09:54:55;;;;;;;6.85;1.80;;;21.30;99.90;;;;;;5108302;28;20083;-71
2023/08/26 09:57:45;;;;;;;4.55;1.42;;;21.30;99.90;;;;;;5109587;28;20079;-70
2023/08/26 10:00:31;;;;;;;3.65;1.20;;;21.20;99.90;;;;;;5109438;28;20052;-72
2023/08/26 10:03:22;;;;;;;2.97;1.20;;;21.00;99.90;;;;;;5108986;28;20056;-72
2023/08/26 10:06:09;;;;;;;8.63;1.10;;;20.90;99.90;;;;;;5110307;28;20388;-72
2023/08/26 10:09:06;;;;;;;3.83;1.23;;;20.80;99.90;;;;;;5109458;28;20059;-72
2023/08/26 10:11:55;;;;;;;6.22;1.40;;;20.70;99.90;;;;;;5109478;28;20058;-74
2023/08/26 10:14:45;;;;;;;6.03;1.73;;;20.60;99.90;;;;;;5110054;28;20143;-71
2023/08/26 10:17:33;;;;;;;5.03;0.98;;;20.50;99.90;;;;;;5110343;28;20044;-74
2023/08/26 10:20:20;;;;;;;5.22;1.80;;;20.40;99.90;;;;;;5109316;28;20138;-74
2023/08/26 10:23:06;;;;;;;3.20;1.60;;;20.40;99.90;;;;;;5110279;28;20499;-70
2023/08/26 10:25:53;;;;;;;5.82;1.52;;;20.30;99.90;;;;;;5107711;28;20055;-70
2023/08/26 10:28:41;;;;;;;4.85;1.30;;;20.10;99.90;;;;;;5109533;28;20052;-75
2023/08/26 10:31:35;;;;;;;5.43;1.63;;;20.20;99.90;;;;;;5110268;28;20047;-70
2023/08/26 10:34:30;;;;;;;6.27;1.40;;;20.00;99.90;;;;;;5109176;28;20052;-73
2023/08/26 10:37:17;;;;;;;3.95;1.40;;;19.90;99.90;;;;;;5108780;28;20372;-74
2023/08/26 10:40:12;;;;;;;9.65;1.70;;;20.00;99.90;;;;;;5109912;28;20162;-69
2023/08/26 10:43:08;;;;;;;3.95;1.40;;;20.00;99.90;;;;;;5094600;28;20051;-75
2023/08/26 10:45:57;;;;;;;6.85;2.10;;;20.00;99.90;;;;;;5108544;28;20083;-75
2023/08/26 10:48:56;;;;;;;4.18;1.42;;;20.20;99.90;;;;;;5109524;28;20491;-78
2023/08/26 10:51:44;;;;;;;4.75;1.58;;;20.60;99.90;;;;;;5113749;28;20051;-74
2023/08/26 10:54:30;;;;;;;6.93;2.28;;;21.10;99.90;;;;;;5113053;28;20048;-74
2023/08/26 10:57:16;;;;;;;4.60;2.50;;;21.70;99.90;;;;;;5112642;28;20154;-79
2023/08/26 11:00:09;;;;;;;6.90;2.70;;;21.90;99.90;;;;;;5112975;28;20051;-71
2023/08/26 11:02:55;;;;;;;5.72;2.20;;;22.00;99.90;;;;;;5112530;28;20143;-72
2023/08/26 11:05:43;;;;;;;6.13;2.67;;;21.90;99.90;;;;;;5112500;28;20459;-77
2023/08/26 11:08:30;;;;;;;7.10;2.88;;;21.90;99.90;;;;;;5112756;28;20091;-71
2023/08/26 11:11:16;;;;;;;5.43;2.15;;;21.60;99.90;;;;;;5113177;28;20453;-74
2023/08/26 11:14:02;;;;;;;8.07;2.63;;;21.80;99.90;;;;;;5113148;28;20492;-73
2023/08/26 11:16:51;;;;;;;9.43;3.00;;;21.50;99.90;;;;;;5113207;28;20055;-70
2023/08/26 11:19:38;;;;;;;5.90;2.35;;;22.00;99.90;;;;;;5112570;28;20059;-70
2023/08/26 11:22:28;;;;;;;7.38;1.90;;;22.50;99.90;;;;;;5113151;28;20051;-71
2023/08/26 11:25:18;;;;;;;4.70;1.85;;;23.00;99.90;;;;;;5110638;28;20395;-79
2023/08/26 11:28:05;;;;;;;3.75;1.10;;;23.60;98.80;;;;;;5111132;28;20093;-79
2023/08/26 11:30:52;;;;;;;2.85;1.10;;;23.40;99.40;;;;;;5111818;28;20051;-80
2023/08/26 11:33:38;;;;;;;2.65;1.15;;;23.60;98.70;;;;;;5111862;28;20047;-74
2023/08/26 11:36:26;;;;;;;2.97;0.82;;;23.80;98.50;;;;;;5111978;28;20122;-77
2023/08/26 11:39:18;;;;;;;3.20;0.77;;;23.70;98.50;;;;;;5111964;28;20085;-75
2023/08/26 11:42:15;;;;;;;2.70;0.77;;;23.50;97.60;;;;;;5111151;28;20193;-76
2023/08/26 11:45:02;;;;;;;2.58;0.80;;;23.30;98.60;;;;;;5111777;28;20412;-73
2023/08/26 11:47:48;;;;;;;2.92;0.93;;;23.20;97.70;;;;;;5110856;28;20399;-72
2023/08/26 11:50:35;;;;;;;2.85;0.93;;;23.20;98.00;;;;;;5111084;28;20146;-74
2023/08/26 11:53:24;;;;;;;3.47;1.10;;;23.40;97.50;;;;;;5111424;28;20050;-76
2023/08/26 11:56:11;;;;;;;3.55;0.85;;;23.80;98.20;;;;;;5111666;28;20082;-71
2023/08/26 11:58:57;;;;;;;1.90;0.60;;;23.80;97.40;;;;;;5097267;28;20128;-73
2023/08/26 12:01:43;;;;;;;4.05;1.00;;;24.10;96.50;;;;;;5111451;28;20085;-71
2023/08/26 12:04:37;;;;;;;2.40;0.75;;;24.40;97.00;;;;;;5111615;28;20052;-73
2023/08/26 12:07:24;;;;;;;2.78;1.00;;;24.50;95.40;;;;;;5112136;28;20154;-75
2023/08/26 12:10:11;;;;;;;2.22;0.82;;;24.20;95.80;;;;;;5110194;28;20165;-77
2023/08/26 12:13:04;;;;;;;3.80;1.00;;;23.50;96.40;;;;;;5097287;28;20135;-78
2023/08/26 12:15:50;;;;;;;3.63;1.05;;;23.50;96.20;;;;;;5112141;28;20130;-75
2023/08/26 12:18:40;;;;;;;2.33;0.77;;;23.50;97.00;;;;;;5111090;28;20396;-74
2023/08/26 12:21:30;;;;;;;4.20;0.90;;;24.00;97.60;;;;;;5111069;28;20054;-74
2023/08/26 12:24:21;;;;;;;2.75;0.70;;;23.90;96.30;;;;;;5112657;28;20138;-75
2023/08/26 12:27:08;;;;;;;5.13;0.85;;;23.80;97.40;;;;;;5112956;28;20100;-78
2023/08/26 12:29:54;;;;;;;2.70;0.70;;;24.60;97.50;;;;;;5110331;28;20047;-75
2023/08/26 12:32:40;;;;;;;2.92;0.98;;;24.70;95.60;;;;;;5111157;28;20083;-72
2023/08/26 12:35:27;;;;;;;3.33;0.75;;;25.10;95.80;;;;;;5111799;28;20063;-78
2023/08/26 12:38:13;;;;;;;2.13;0.60;;;25.50;96.00;;;;;;5111495;28;20055;-78
2023/08/26 12:41:01;;;;;;;3.75;0.80;;;25.00;95.10;;;;;;5111247;28;20043;-81
2023/08/26 12:43:48;;;;;;;3.55;0.52;;;24.70;95.30;;;;;;5110498;28;20082;-76
2023/08/26 12:46:34;;;;;;;4.20;1.05;;;24.50;95.80;;;;;;5110858;28;20071;-69
2023/08/26 12:49:20;;;;;;;3.25;1.10;;;25.00;95.10;;;;;;5110906;28;20051;-70
2023/08/26 12:52:06;;;;;;;3.53;1.05;;;25.40;95.10;;;;;;5111352;28;20055;-75
2023/08/26 12:54:54;;;;;;;5.10;1.17;;;25.70;95.10;;;;;;5111518;28;20063;-72
2023/08/26 12:57:40;;;;;;;4.93;1.10;;;26.10;94.60;;;;;;5111309;28;20043;-74
2023/08/26 13:00:26;;;;;;;5.25;1.00;;;26.00;94.00;;;;;;5111022;28;20062;-77
2023/08/26 13:03:12;;;;;;;5.22;1.77;;;26.50;93.50;;;;;;5109932;28;20048;-78
2023/08/26 13:05:58;;;;;;;4.65;1.10;;;26.70;92.20;;;;;;5109965;28;20059;-73
2023/08/26 13:08:44;;;;;;;2.70;0.80;;;26.80;92.60;;;;;;5109833;28;20171;-79
2023/08/26 13:11:30;;;;;;;4.95;1.05;;;27.70;90.40;;;;;;5111304;28;20099;-76
2023/08/26 13:14:16;;;;;;;5.30;1.02;;;28.30;90.30;;;;;;5108471;28;20494;-70
2023/08/26 13:17:02;;;;;;;4.20;0.85;;;28.20;89.50;;;;;;5110506;28;20047;-73
2023/08/26 13:19:48;;;;;;;3.00;0.70;;;28.70;90.00;;;;;;5110328;28;20048;-70
2023/08/26 13:22:34;;;;;;;2.67;0.63;;;28.70;88.80;;;;;;5110466;28;20051;-74
2023/08/26 13:25:20;;;;;;;3.33;0.65;;;28.80;87.50;;;;;;5108957;28;20058;-75
2023/08/26 13:28:07;;;;;;;6.10;1.23;;;28.60;87.10;;;;;;5110344;28;20082;-80
2023/08/26 13:30:56;;;;;;;4.40;0.80;;;28.80;87.40;;;;;;5109552;28;20499;-72
2023/08/26 13:33:42;;;;;;;2.75;1.30;;;29.00;86.20;;;;;;5110388;28;20499;-71
2023/08/26 13:36:28;;;;;;;7.13;1.15;;;29.40;85.40;;;;;;5110669;28;20055;-70
2023/08/26 13:39:14;;;;;;;3.88;0.80;;;30.00;85.40;;;;;;5109078;28;20071;-73
2023/08/26 13:42:00;;;;;;;4.10;0.68;;;31.00;82.70;;;;;;5111428;28;20100;-73
2023/08/26 13:44:46;;;;;;;2.45;0.70;;;30.70;82.00;;;;;;5110005;28;20051;-71
2023/08/26 13:47:32;;;;;;;2.35;0.55;;;31.10;81.80;;;;;;5110742;28;20048;-70
2023/08/26 13:50:18;;;;;;;2.30;0.55;;;31.30;79.50;;;;;;5109384;28;20063;-70
2023/08/26 13:53:04;;;;;;;3.90;0.90;;;30.90;79.10;;;;;;5109650;28;20074;-72
2023/08/26 13:55:57;;;;;;;1.13;0.60;;;31.90;78.70;;;;;;5109290;28;20109;-69
2023/08/26 13:58:43;;;;;;;3.60;1.27;;;31.60;77.70;;;;;;5109179;28;20499;-71
2023/08/26 14:01:29;;;;;;;3.58;0.75;;;31.40;76.60;;;;;;5110303;28;20091;-71
2023/08/26 14:04:16;;;;;;;4.43;0.80;;;31.10;78.00;;;;;;5108605;28;20048;-71
2023/08/26 14:07:03;;;;;;;6.10;0.82;;;30.30;75.70;;;;;;5110146;28;20058;-71
2023/08/26 14:09:49;;;;;;;3.10;0.68;;;30.70;77.50;;;;;;5109026;28;20062;-69
2023/08/26 14:12:38;;;;;;;2.90;0.40;;;30.90;76.80;;;;;;5109156;28;20453;-74
2023/08/26 14:15:24;;;;;;;3.17;0.60;;;31.50;77.90;;;;;;5108897;28;20066;-70
2023/08/26 14:18:11;;;;;;;1.83;0.73;;;31.40;74.20;;;;;;5109194;28;20056;-73
2023/08/26 14:20:58;;;;;;;1.80;0.52;;;31.60;73.30;;;;;;5110167;28;20079;-77
2023/08/26 14:23:44;;;;;;;2.10;0.52;;;31.90;74.80;;;;;;5109131;28;20063;-76
2023/08/26 14:26:30;;;;;;;2.40;0.70;;;32.40;72.40;;;;;;5112751;28;20124;-76
2023/08/26 14:29:17;;;;;;;2.17;0.63;;;32.40;73.30;;;;;;5114012;28;20055;-72